Time;durP1;ratioP1;P1;durP2;ratioP2;P2;SDS_P1;SDS_P2;PMS_P1;PMS_P2;Temp;Humidity;BMP_temperature;BMP_pressure;BME280_temperature;BME280_humidity;BME280_pressure;Samples;Min_cycle;Max_cycle;Signal;HPM_P1;HPM_P2
2023/01/26 00:00:48;;;;;;;40.97;19.58;;;4.50;99.90;;;;;;5043542;28;20226;-64
2023/01/26 00:03:13;;;;;;;39.10;19.13;;;4.40;99.90;;;;;;5040614;28;20533;-64
2023/01/26 00:05:40;;;;;;;37.97;20.10;;;4.40;99.90;;;;;;5051149;28;20458;-63
2023/01/26 00:08:05;;;;;;;40.03;20.70;;;4.40;99.90;;;;;;5047960;28;20181;-65
2023/01/26 00:10:31;;;;;;;42.23;19.60;;;4.40;99.90;;;;;;5017725;28;20183;-64
2023/01/26 00:12:57;;;;;;;38.70;20.77;;;4.40;99.90;;;;;;5044955;28;20424;-64
2023/01/26 00:15:25;;;;;;;44.90;21.70;;;4.40;99.90;;;;;;5039917;28;20262;-64
2023/01/26 00:17:51;;;;;;;40.60;20.73;;;4.40;99.90;;;;;;5051715;28;20409;-64
2023/01/26 00:20:17;;;;;;;36.50;19.43;;;4.40;99.90;;;;;;5035519;28;20686;-64
2023/01/26 00:22:43;;;;;;;42.15;19.77;;;4.30;99.90;;;;;;5046542;28;20182;-64
2023/01/26 00:25:09;;;;;;;38.00;19.17;;;4.40;99.90;;;;;;5045587;28;20182;-65
2023/01/26 00:27:35;;;;;;;36.88;19.10;;;4.40;99.90;;;;;;5047268;28;20487;-64
2023/01/26 00:30:02;;;;;;;39.10;20.73;;;4.40;99.90;;;;;;5040161;28;20174;-64
2023/01/26 00:32:28;;;;;;;46.58;22.10;;;4.30;99.90;;;;;;5038686;28;20283;-64
2023/01/26 00:34:54;;;;;;;42.80;22.17;;;4.30;99.90;;;;;;5050463;28;20181;-65
2023/01/26 00:37:19;;;;;;;42.80;22.13;;;4.30;99.90;;;;;;5034601;28;20622;-64
2023/01/26 00:39:45;;;;;;;40.87;20.47;;;4.30;99.90;;;;;;5047932;28;20182;-64
2023/01/26 00:42:12;;;;;;;40.60;19.60;;;4.30;99.90;;;;;;5048097;28;20228;-64
2023/01/26 00:44:40;;;;;;;41.45;19.92;;;4.30;99.90;;;;;;5045532;28;20249;-64
2023/01/26 00:47:07;;;;;;;34.65;19.38;;;4.30;99.90;;;;;;5048822;28;20261;-67
2023/01/26 00:49:34;;;;;;;35.70;19.70;;;4.30;99.90;;;;;;5051935;28;20235;-64
2023/01/26 00:52:00;;;;;;;34.58;18.48;;;4.30;99.90;;;;;;5048235;28;20190;-64
2023/01/26 00:54:26;;;;;;;39.08;19.70;;;4.30;99.90;;;;;;5052113;28;20182;-64
2023/01/26 00:56:52;;;;;;;36.20;19.40;;;4.30;99.90;;;;;;5052057;28;20170;-64
2023/01/26 00:59:18;;;;;;;41.27;20.50;;;4.40;99.90;;;;;;5023821;28;20181;-64
2023/01/26 01:01:44;;;;;;;35.40;19.07;;;4.40;99.90;;;;;;5040024;28;20213;-64
2023/01/26 01:04:09;;;;;;;36.40;18.67;;;4.50;99.90;;;;;;5049426;28;20630;-64
2023/01/26 01:06:35;;;;;;;33.53;17.47;;;4.50;99.90;;;;;;5049509;28;20178;-64
2023/01/26 01:09:01;;;;;;;34.67;18.50;;;4.40;99.90;;;;;;5052964;28;20192;-64
2023/01/26 01:11:27;;;;;;;37.47;17.57;;;4.20;99.90;;;;;;5050203;28;20691;-64
2023/01/26 01:13:52;;;;;;;32.20;17.40;;;4.10;99.90;;;;;;5050706;28;20186;-64
2023/01/26 01:16:18;;;;;;;33.80;16.77;;;3.90;99.90;;;;;;5052473;28;20173;-64
2023/01/26 01:18:44;;;;;;;36.10;16.73;;;4.00;99.90;;;;;;5050926;28;20180;-64
2023/01/26 01:21:13;;;;;;;31.45;18.02;;;3.90;99.90;;;;;;5043491;28;20447;-64
2023/01/26 01:23:39;;;;;;;30.60;16.00;;;3.90;99.90;;;;;;5023298;28;20235;-64
2023/01/26 01:26:06;;;;;;;29.60;16.67;;;3.90;99.90;;;;;;5036708;28;20526;-64
2023/01/26 01:28:33;;;;;;;31.83;16.00;;;3.90;99.90;;;;;;5052440;28;20614;-63
2023/01/26 01:31:02;;;;;;;30.50;15.00;;;3.80;99.90;;;;;;5039361;28;20190;-64
2023/01/26 01:33:27;;;;;;;33.35;16.73;;;3.80;99.90;;;;;;5039816;28;20756;-64
2023/01/26 01:35:58;;;;;;;32.00;16.70;;;3.90;99.90;;;;;;5048087;28;20178;-64
2023/01/26 01:38:24;;;;;;;33.10;17.08;;;4.00;99.90;;;;;;5047905;28;20178;-64
2023/01/26 01:40:50;;;;;;;34.33;16.73;;;4.00;99.90;;;;;;5042672;28;20268;-65
2023/01/26 01:43:16;;;;;;;30.85;16.42;;;4.10;99.90;;;;;;5047550;28;20198;-64
2023/01/26 01:45:46;;;;;;;27.60;16.47;;;4.20;99.90;;;;;;5038063;28;20186;-64
2023/01/26 01:48:36;;;;;;;29.73;15.75;;;4.20;99.90;;;;;;5019768;28;20641;-64
2023/01/26 01:51:11;;;;;;;29.60;16.70;;;4.30;99.90;;;;;;5041517;28;20192;-64
2023/01/26 01:53:39;;;;;;;29.67;16.35;;;4.30;99.90;;;;;;5037357;28;20190;-64
2023/01/26 01:56:17;;;;;;;29.80;15.93;;;4.40;99.90;;;;;;5029197;28;20186;-64
2023/01/26 01:58:43;;;;;;;24.02;15.05;;;4.40;99.90;;;;;;5041081;28;20184;-64
2023/01/26 02:01:10;;;;;;;29.13;14.93;;;4.40;99.90;;;;;;5026813;28;20288;-67
2023/01/26 02:03:36;;;;;;;25.35;14.10;;;4.40;99.90;;;;;;5040258;28;20697;-64
2023/01/26 02:06:11;;;;;;;31.02;15.82;;;4.40;99.90;;;;;;5038068;28;20217;-64
2023/01/26 02:08:47;;;;;;;25.27;14.02;;;4.40;99.90;;;;;;5040882;28;20232;-64
2023/01/26 02:11:22;;;;;;;28.27;14.40;;;4.50;99.90;;;;;;5034219;28;20186;-64
2023/01/26 02:13:48;;;;;;;33.65;15.35;;;4.50;99.90;;;;;;5049551;28;20267;-64
2023/01/26 02:16:15;;;;;;;29.25;14.70;;;4.50;99.90;;;;;;5040641;28;20189;-64
2023/01/26 02:18:42;;;;;;;25.13;15.07;;;4.60;99.90;;;;;;5033797;28;20178;-64
2023/01/26 02:21:15;;;;;;;27.45;14.98;;;4.50;99.90;;;;;;5049106;28;20735;-64
2023/01/26 02:23:55;;;;;;;28.05;14.38;;;4.50;99.90;;;;;;5042044;28;20177;-64
2023/01/26 02:26:28;;;;;;;26.50;13.70;;;4.50;99.90;;;;;;5033560;28;20185;-64
2023/01/26 02:28:54;;;;;;;28.23;14.32;;;4.50;99.90;;;;;;5032942;28;20201;-65
2023/01/26 02:31:22;;;;;;;27.17;15.05;;;4.50;99.90;;;;;;5050967;28;20192;-64
2023/01/26 02:33:49;;;;;;;28.17;14.95;;;4.40;99.90;;;;;;5024725;28;20236;-64
2023/01/26 02:36:19;;;;;;;30.08;15.35;;;4.40;99.90;;;;;;5015418;28;20178;-64
2023/01/26 02:39:01;;;;;;;29.88;15.60;;;4.40;99.90;;;;;;5045702;28;20661;-63
2023/01/26 02:44:12;;;;;;;30.95;16.30;;;4.40;99.90;;;;;;5049325;28;20217;-67
2023/01/26 02:46:38;;;;;;;35.90;15.25;;;4.40;99.90;;;;;;5036248;28;20621;-63
2023/01/26 02:51:48;;;;;;;33.22;16.70;;;4.40;99.90;;;;;;5046130;28;20483;-63
2023/01/26 02:55:21;;;;;;;32.03;14.73;;;4.40;99.90;;;;;;5042717;28;20622;-66
2023/01/26 02:57:00;;;;;;;32.13;15.70;;;4.40;99.90;;;;;;5042006;28;20179;-63
2023/01/26 02:59:26;;;;;;;32.33;17.17;;;4.50;99.90;;;;;;5034102;28;20262;-63
2023/01/26 03:01:53;;;;;;;27.17;16.80;;;4.40;99.90;;;;;;5047914;28;20533;-63
2023/01/26 03:04:18;;;;;;;29.77;15.88;;;4.40;99.90;;;;;;5049067;28;20257;-63
2023/01/26 03:06:44;;;;;;;30.97;15.93;;;4.30;99.90;;;;;;5039332;28;20256;-63
2023/01/26 03:09:10;;;;;;;34.17;17.47;;;4.30;99.90;;;;;;5043739;28;20182;-63
2023/01/26 03:11:40;;;;;;;27.83;15.00;;;4.30;99.90;;;;;;5016609;28;20325;-63
2023/01/26 03:14:10;;;;;;;28.88;13.95;;;4.30;99.90;;;;;;5049319;28;20181;-63
2023/01/26 03:16:36;;;;;;;23.63;13.75;;;4.30;99.90;;;;;;5026555;28;20189;-63
2023/01/26 03:29:44;;;;;;;31.73;16.40;;;4.30;99.90;;;;;;5042981;28;20185;-63
2023/01/26 03:32:11;;;;;;;26.90;15.33;;;4.30;99.90;;;;;;5033182;28;20192;-63
2023/01/26 03:34:36;;;;;;;32.83;15.20;;;4.30;99.90;;;;;;5045145;28;20494;-63
2023/01/26 03:37:03;;;;;;;30.87;14.53;;;4.30;99.90;;;;;;5031636;28;20182;-65
2023/01/26 03:56:20;;;;;;;33.88;15.98;;;4.40;99.90;;;;;;5035393;28;20260;-63
2023/01/26 03:58:52;;;;;;;25.67;14.60;;;4.40;99.90;;;;;;5021287;28;20641;-63
2023/01/26 04:01:31;;;;;;;33.72;16.17;;;4.40;99.90;;;;;;5043617;28;20564;-66
2023/01/26 04:09:28;;;;;;;37.33;18.30;;;4.40;99.90;;;;;;5036350;28;20179;-63
2023/01/26 04:11:54;;;;;;;36.08;17.15;;;4.40;99.90;;;;;;5051102;28;20190;-63
2023/01/26 04:22:44;;;;;;;36.33;17.75;;;4.40;99.90;;;;;;5038959;28;20206;-62
2023/01/26 04:25:15;;;;;;;26.63;15.93;;;4.40;99.90;;;;;;5037606;28;20231;-63
2023/01/26 04:27:42;;;;;;;30.83;15.23;;;4.50;99.90;;;;;;5034058;28;20639;-63
2023/01/26 04:30:10;;;;;;;33.65;16.42;;;4.40;99.90;;;;;;5035723;28;20520;-64
2023/01/26 04:32:36;;;;;;;33.08;17.38;;;4.50;99.90;;;;;;5046073;28;20204;-63
2023/01/26 04:35:02;;;;;;;34.30;16.60;;;4.50;99.90;;;;;;5053690;28;20625;-63
2023/01/26 04:37:28;;;;;;;34.33;16.75;;;4.50;99.90;;;;;;5044567;28;20174;-63
2023/01/26 04:39:54;;;;;;;30.20;16.17;;;4.40;99.90;;;;;;5048296;28;20185;-63
2023/01/26 04:42:20;;;;;;;33.33;16.50;;;4.50;99.90;;;;;;5048698;28;20503;-67
2023/01/26 04:44:45;;;;;;;37.13;16.20;;;4.50;99.90;;;;;;5049518;28;20209;-64
2023/01/26 04:47:11;;;;;;;33.30;17.70;;;4.40;99.90;;;;;;5048104;28;20182;-63
2023/01/26 04:49:37;;;;;;;33.50;18.13;;;4.40;99.90;;;;;;5041098;28;20704;-65
2023/01/26 04:52:02;;;;;;;35.33;15.90;;;4.40;99.90;;;;;;5040507;28;20531;-63
2023/01/26 04:54:28;;;;;;;30.67;15.57;;;4.40;99.90;;;;;;5052790;28;20186;-63
2023/01/26 04:56:54;;;;;;;32.07;15.33;;;4.40;99.90;;;;;;5045197;28;20601;-63
2023/01/26 04:59:19;;;;;;;32.37;15.97;;;4.40;99.90;;;;;;5047366;28;20186;-67
2023/01/26 05:01:45;;;;;;;38.60;17.20;;;4.30;99.90;;;;;;5052024;28;20666;-64
2023/01/26 05:04:14;;;;;;;36.30;17.13;;;4.40;99.90;;;;;;5041300;28;20185;-63
2023/01/26 05:06:41;;;;;;;34.72;17.50;;;4.30;99.90;;;;;;5041268;28;20173;-63
2023/01/26 05:09:07;;;;;;;35.90;18.13;;;4.30;99.90;;;;;;5046149;28;20273;-63
2023/01/26 05:11:33;;;;;;;27.05;17.33;;;4.40;99.90;;;;;;5015845;28;20214;-63
2023/01/26 05:13:59;;;;;;;37.88;16.35;;;4.40;99.90;;;;;;5034229;28;20189;-63
2023/01/26 05:16:25;;;;;;;35.27;16.90;;;4.50;99.90;;;;;;5045326;28;20265;-63
2023/01/26 05:18:52;;;;;;;34.35;17.73;;;4.40;99.90;;;;;;5036729;28;20177;-63
2023/01/26 05:21:17;;;;;;;30.95;17.10;;;4.50;99.90;;;;;;5048790;28;20571;-63
2023/01/26 05:23:43;;;;;;;31.27;17.60;;;4.50;99.90;;;;;;5036932;28;20185;-63
2023/01/26 05:26:09;;;;;;;35.00;17.33;;;4.50;99.90;;;;;;5044487;28;20214;-63
2023/01/26 05:28:35;;;;;;;36.77;17.70;;;4.60;99.90;;;;;;5047268;28;20183;-63
2023/01/26 05:31:01;;;;;;;34.15;18.85;;;4.60;99.90;;;;;;5039676;28;20440;-63
2023/01/26 05:33:26;;;;;;;39.93;19.97;;;4.60;99.90;;;;;;5017183;28;20191;-64
2023/01/26 05:35:52;;;;;;;38.23;19.20;;;4.60;99.90;;;;;;5033993;28;20217;-63
2023/01/26 05:38:18;;;;;;;37.80;20.25;;;4.50;99.90;;;;;;5046243;28;20470;-63
2023/01/26 05:40:46;;;;;;;37.58;19.75;;;4.60;99.90;;;;;;5048056;28;20228;-63
2023/01/26 05:43:12;;;;;;;39.50;20.17;;;4.60;99.90;;;;;;5074258;28;20531;-63
2023/01/26 05:45:39;;;;;;;39.97;18.83;;;4.60;99.90;;;;;;5070031;28;20169;-63
2023/01/26 05:48:05;;;;;;;39.40;20.13;;;4.60;99.90;;;;;;5073296;28;20177;-63
2023/01/26 05:50:31;;;;;;;44.60;21.98;;;4.60;99.90;;;;;;5072302;28;20270;-63
2023/01/26 05:52:59;;;;;;;38.40;21.20;;;4.60;99.90;;;;;;5072006;28;20229;-63
2023/01/26 05:55:25;;;;;;;39.05;19.05;;;4.70;99.90;;;;;;5059848;28;20178;-66
2023/01/26 05:57:51;;;;;;;36.17;19.15;;;4.60;99.90;;;;;;5073942;28;20177;-63
2023/01/26 06:00:19;;;;;;;48.30;21.60;;;4.60;99.90;;;;;;5070361;28;20283;-63
2023/01/26 06:02:45;;;;;;;35.92;19.85;;;4.70;99.90;;;;;;5058032;28;20228;-63
2023/01/26 06:05:11;;;;;;;40.13;21.10;;;4.60;99.90;;;;;;5066126;28;20185;-62
2023/01/26 06:07:36;;;;;;;40.80;20.60;;;4.60;99.90;;;;;;5068367;28;20541;-62
2023/01/26 06:10:03;;;;;;;42.73;21.23;;;4.60;99.90;;;;;;5068345;28;20194;-62
2023/01/26 06:12:34;;;;;;;44.88;20.00;;;4.60;99.90;;;;;;5069696;28;20178;-62
2023/01/26 06:15:00;;;;;;;37.35;19.90;;;4.60;99.90;;;;;;5056957;28;20256;-62
2023/01/26 06:17:26;;;;;;;43.80;22.45;;;4.60;99.90;;;;;;5062761;28;20176;-63
2023/01/26 06:19:52;;;;;;;40.60;19.03;;;4.60;99.90;;;;;;5072674;28;20686;-62
2023/01/26 06:22:17;;;;;;;36.93;19.63;;;4.70;99.90;;;;;;5074112;28;20437;-62
2023/01/26 06:24:43;;;;;;;39.80;19.83;;;4.60;99.90;;;;;;5073135;28;20479;-62
2023/01/26 06:27:14;;;;;;;36.60;19.03;;;4.60;99.90;;;;;;5065097;28;20239;-63
2023/01/26 06:29:40;;;;;;;40.53;21.58;;;4.60;99.90;;;;;;5054128;28;20572;-64
2023/01/26 06:32:06;;;;;;;36.45;18.33;;;4.60;99.90;;;;;;5040732;28;20234;-64
2023/01/26 06:34:32;;;;;;;39.33;18.73;;;4.60;99.90;;;;;;5065669;28;20186;-64
2023/01/26 06:36:58;;;;;;;42.57;20.07;;;4.60;99.90;;;;;;5053001;28;20643;-64
2023/01/26 06:39:24;;;;;;;38.67;19.23;;;4.70;99.90;;;;;;5069089;28;20428;-64
2023/01/26 06:41:50;;;;;;;38.47;19.33;;;4.60;99.90;;;;;;5056517;28;20240;-62
2023/01/26 06:44:18;;;;;;;41.57;18.80;;;4.70;99.90;;;;;;5053263;28;20188;-62
2023/01/26 06:46:43;;;;;;;38.15;18.75;;;4.60;99.90;;;;;;5051955;28;20647;-64
2023/01/26 06:49:09;;;;;;;42.90;18.30;;;4.70;99.90;;;;;;5053518;28;20181;-62
2023/01/26 06:51:57;;;;;;;38.27;18.20;;;4.70;99.90;;;;;;5050619;28;20614;-62
2023/01/26 06:54:22;;;;;;;33.05;17.65;;;4.70;99.90;;;;;;5053108;28;20180;-62
2023/01/26 06:56:48;;;;;;;33.80;18.27;;;4.60;99.90;;;;;;5036016;28;20531;-62
2023/01/26 06:59:14;;;;;;;39.57;18.43;;;4.70;99.90;;;;;;5015459;28;20183;-62
2023/01/26 07:01:48;;;;;;;36.50;19.23;;;4.60;99.90;;;;;;5032462;28;20514;-63
2023/01/26 07:04:15;;;;;;;37.63;19.33;;;4.60;99.90;;;;;;4998587;28;20230;-64
2023/01/26 07:06:42;;;;;;;42.33;20.15;;;4.60;99.90;;;;;;5033202;28;20178;-64
2023/01/26 07:09:08;;;;;;;41.72;18.85;;;4.60;99.90;;;;;;5052805;28;20304;-63
2023/01/26 07:11:34;;;;;;;37.67;17.92;;;4.60;99.90;;;;;;5052518;28;20565;-64
2023/01/26 07:14:00;;;;;;;37.33;18.83;;;4.60;99.90;;;;;;5052585;28;20213;-63
2023/01/26 07:16:25;;;;;;;32.40;17.90;;;4.60;99.90;;;;;;5053105;28;20252;-64
2023/01/26 07:18:53;;;;;;;36.57;18.90;;;4.60;99.90;;;;;;5052494;28;20206;-64
2023/01/26 07:21:19;;;;;;;35.22;18.20;;;4.60;99.90;;;;;;5034950;28;20218;-63
2023/01/26 07:23:46;;;;;;;33.17;18.17;;;4.70;99.90;;;;;;5047894;28;20261;-64
2023/01/26 07:26:12;;;;;;;36.95;18.83;;;4.60;99.90;;;;;;5044692;28;20262;-64
2023/01/26 07:28:37;;;;;;;39.95;21.50;;;4.60;99.90;;;;;;5051213;28;20236;-64
2023/01/26 07:31:04;;;;;;;36.00;18.33;;;4.70;99.90;;;;;;5052712;28;20189;-64
2023/01/26 07:33:32;;;;;;;36.63;19.77;;;4.70;99.90;;;;;;5051733;28;20177;-64
2023/01/26 07:35:58;;;;;;;38.58;19.73;;;4.80;99.90;;;;;;5018381;28;20579;-64
2023/01/26 07:38:25;;;;;;;39.17;19.70;;;4.80;99.90;;;;;;5040856;28;20206;-64
2023/01/26 07:40:54;;;;;;;30.67;18.08;;;4.80;99.90;;;;;;5045185;28;20613;-63
2023/01/26 07:43:20;;;;;;;37.33;17.73;;;4.80;99.90;;;;;;5021551;28;20193;-64
2023/01/26 07:45:50;;;;;;;38.60;20.20;;;4.90;99.90;;;;;;5051883;28;20732;-64
2023/01/26 07:48:17;;;;;;;40.75;18.65;;;4.90;99.90;;;;;;5040308;28;20419;-64
2023/01/26 07:50:44;;;;;;;37.60;18.17;;;4.90;99.90;;;;;;5014469;28;20182;-64
2023/01/26 07:53:11;;;;;;;36.30;18.65;;;4.90;99.90;;;;;;5032456;28;20258;-64
2023/01/26 07:55:37;;;;;;;35.08;18.20;;;4.90;99.90;;;;;;5031784;28;20171;-62
2023/01/26 07:58:03;;;;;;;33.53;18.13;;;4.90;99.90;;;;;;5033849;28;20205;-64
2023/01/26 08:00:29;;;;;;;41.67;17.57;;;4.90;99.90;;;;;;5020608;28;20474;-68
2023/01/26 08:02:55;;;;;;;38.58;18.75;;;4.90;99.90;;;;;;5036441;28;20214;-64
2023/01/26 08:05:20;;;;;;;37.17;19.10;;;4.90;99.90;;;;;;5039477;28;20765;-66
2023/01/26 08:07:47;;;;;;;41.07;21.10;;;4.90;99.90;;;;;;5048751;28;20185;-64
2023/01/26 08:10:13;;;;;;;36.50;19.55;;;4.90;99.90;;;;;;5055232;28;20272;-64
2023/01/26 08:12:39;;;;;;;41.38;20.08;;;4.90;99.90;;;;;;5055079;28;20552;-64
2023/01/26 08:15:05;;;;;;;38.83;19.23;;;4.90;99.90;;;;;;5056237;28;20170;-64
2023/01/26 08:17:32;;;;;;;38.40;20.37;;;4.90;99.90;;;;;;5055898;28;20184;-65
2023/01/26 08:19:58;;;;;;;43.08;20.10;;;4.90;99.90;;;;;;5056144;28;20379;-64
2023/01/26 08:22:24;;;;;;;35.50;18.43;;;4.90;99.90;;;;;;5053220;28;20221;-64
2023/01/26 08:24:50;;;;;;;35.83;18.15;;;4.90;99.90;;;;;;5037294;28;20488;-64
2023/01/26 08:27:18;;;;;;;39.47;19.97;;;4.90;99.90;;;;;;5055680;28;20173;-64
2023/01/26 08:29:44;;;;;;;38.63;19.92;;;5.00;99.90;;;;;;5055320;28;20175;-64
2023/01/26 08:32:09;;;;;;;39.90;20.93;;;4.90;99.90;;;;;;5037952;28;20211;-64
2023/01/26 08:34:35;;;;;;;37.50;18.57;;;4.90;99.90;;;;;;5055024;28;20170;-64
2023/01/26 08:37:02;;;;;;;38.77;21.10;;;5.00;99.90;;;;;;5055780;28;20615;-64
2023/01/26 08:39:28;;;;;;;41.47;20.90;;;4.90;99.90;;;;;;5037814;28;20182;-63
2023/01/26 08:41:54;;;;;;;34.80;19.70;;;4.90;99.90;;;;;;5054948;28;20252;-64
2023/01/26 08:44:20;;;;;;;41.43;20.10;;;4.90;99.90;;;;;;5055964;28;20884;-64
2023/01/26 08:46:45;;;;;;;38.70;20.30;;;5.00;99.90;;;;;;5052684;28;20417;-64
2023/01/26 08:49:11;;;;;;;37.73;19.40;;;5.00;99.90;;;;;;5037715;28;20668;-64
2023/01/26 08:51:37;;;;;;;43.20;20.50;;;5.00;99.90;;;;;;5036847;28;20169;-64
2023/01/26 08:54:09;;;;;;;35.10;20.10;;;4.90;99.90;;;;;;5055498;28;20170;-64
2023/01/26 08:56:35;;;;;;;41.95;20.20;;;5.00;99.90;;;;;;5054797;28;20216;-64
2023/01/26 08:59:01;;;;;;;37.03;19.83;;;5.00;99.90;;;;;;5021293;28;20178;-64
2023/01/26 09:01:26;;;;;;;34.00;18.90;;;5.00;99.90;;;;;;5037232;28;20467;-64
2023/01/26 09:03:54;;;;;;;33.10;18.20;;;5.00;99.90;;;;;;5054717;28;20707;-64
2023/01/26 09:06:20;;;;;;;33.22;18.77;;;5.00;99.90;;;;;;5055233;28;20166;-64
2023/01/26 09:08:46;;;;;;;38.37;21.43;;;5.00;99.90;;;;;;5031481;28;20614;-64
2023/01/26 09:11:12;;;;;;;35.00;19.60;;;5.00;99.90;;;;;;5017156;28;20407;-64
2023/01/26 09:13:38;;;;;;;38.47;20.30;;;5.00;99.90;;;;;;5034762;28;20405;-64
2023/01/26 09:16:17;;;;;;;39.65;20.08;;;5.10;99.90;;;;;;5017153;28;20265;-64
2023/01/26 09:18:43;;;;;;;35.70;19.75;;;5.10;99.90;;;;;;5034272;28;20158;-64
2023/01/26 09:21:09;;;;;;;33.17;17.90;;;5.10;99.90;;;;;;5017141;28;20565;-64
2023/01/26 09:23:35;;;;;;;36.90;19.53;;;5.10;99.90;;;;;;5034851;28;20256;-68
2023/01/26 09:26:02;;;;;;;37.42;18.08;;;5.10;99.90;;;;;;5033879;28;20619;-64
2023/01/26 09:28:28;;;;;;;32.97;17.85;;;5.20;99.90;;;;;;5016957;28;20215;-64
2023/01/26 09:30:53;;;;;;;32.45;16.85;;;5.20;99.90;;;;;;5016462;28;20179;-64
2023/01/26 09:33:21;;;;;;;34.23;17.60;;;5.20;99.90;;;;;;5034762;28;20170;-64
2023/01/26 09:35:48;;;;;;;35.03;17.73;;;5.20;99.90;;;;;;5034095;28;20192;-64
2023/01/26 09:38:14;;;;;;;31.42;17.85;;;5.20;99.90;;;;;;5027328;28;20186;-64
2023/01/26 09:40:49;;;;;;;31.80;17.03;;;5.20;99.90;;;;;;5050880;28;20715;-65
2023/01/26 09:43:34;;;;;;;37.05;18.65;;;5.20;99.90;;;;;;5054645;28;20391;-64
2023/01/26 09:46:18;;;;;;;35.50;18.50;;;5.20;99.90;;;;;;5054315;28;20158;-64
2023/01/26 09:49:11;;;;;;;33.58;17.60;;;5.20;99.90;;;;;;5053902;28;20170;-64
2023/01/26 09:51:39;;;;;;;33.60;17.42;;;5.20;99.90;;;;;;5053647;28;20158;-65
2023/01/26 09:54:20;;;;;;;32.50;17.48;;;5.30;99.90;;;;;;5054308;28;20170;-64
2023/01/26 09:56:45;;;;;;;35.25;17.65;;;5.30;99.90;;;;;;5035888;28;20174;-64
2023/01/26 09:59:35;;;;;;;36.97;18.33;;;5.30;99.90;;;;;;5036370;28;20293;-64
2023/01/26 10:02:33;;;;;;;37.20;18.05;;;5.30;99.90;;;;;;5054101;28;20651;-64
2023/01/26 10:05:06;;;;;;;38.50;17.90;;;5.30;99.90;;;;;;5053594;28;20170;-64
2023/01/26 10:07:32;;;;;;;31.02;17.48;;;5.40;99.90;;;;;;5054133;28;20190;-64
2023/01/26 10:09:58;;;;;;;35.60;18.03;;;5.30;99.90;;;;;;5014681;28;20205;-64
2023/01/26 10:12:35;;;;;;;36.25;17.85;;;5.40;99.90;;;;;;5016406;28;20190;-64
2023/01/26 10:15:15;;;;;;;34.75;17.65;;;5.30;99.90;;;;;;5015652;28;20181;-64
2023/01/26 10:17:45;;;;;;;37.53;18.48;;;5.40;99.90;;;;;;5015755;28;20182;-64
2023/01/26 10:20:17;;;;;;;34.78;18.98;;;5.40;99.90;;;;;;5033131;28;20181;-64
2023/01/26 10:22:51;;;;;;;32.22;17.00;;;5.40;99.90;;;;;;5032517;28;20222;-64
2023/01/26 10:25:21;;;;;;;33.58;17.52;;;5.40;99.90;;;;;;5033846;28;20174;-64
2023/01/26 10:27:47;;;;;;;33.28;19.73;;;5.40;99.90;;;;;;5051458;28;20177;-64
2023/01/26 10:30:17;;;;;;;38.33;19.90;;;5.40;99.90;;;;;;5053760;28;20196;-64
2023/01/26 10:32:49;;;;;;;33.70;17.65;;;5.40;99.90;;;;;;5053089;28;20173;-64
2023/01/26 10:35:23;;;;;;;36.15;17.52;;;5.40;99.90;;;;;;5035800;28;20211;-64
2023/01/26 10:37:51;;;;;;;29.65;17.23;;;5.40;99.90;;;;;;5052728;28;20165;-64
2023/01/26 10:40:17;;;;;;;35.67;18.33;;;5.50;99.90;;;;;;5040366;28;20225;-64
2023/01/26 10:42:55;;;;;;;32.38;16.23;;;5.40;99.90;;;;;;5071592;28;20557;-64
2023/01/26 10:45:32;;;;;;;33.28;17.58;;;5.60;99.90;;;;;;5073412;28;20298;-64
2023/01/26 10:48:17;;;;;;;27.98;16.17;;;5.50;99.90;;;;;;5054775;28;20633;-64
2023/01/26 10:50:44;;;;;;;34.65;18.05;;;5.50;99.90;;;;;;5071546;28;20168;-64
2023/01/26 10:53:18;;;;;;;36.00;19.25;;;5.40;99.90;;;;;;5073239;28;20183;-64
2023/01/26 10:55:56;;;;;;;31.55;16.80;;;5.50;99.90;;;;;;5070808;28;20184;-64
2023/01/26 10:58:46;;;;;;;32.28;18.40;;;5.50;99.90;;;;;;5070059;28;20211;-64
2023/01/26 11:01:14;;;;;;;26.23;16.65;;;5.50;99.90;;;;;;5073160;28;20510;-64
2023/01/26 11:03:41;;;;;;;30.40;17.08;;;5.50;99.90;;;;;;5072936;28;20191;-69
2023/01/26 11:06:16;;;;;;;31.98;19.05;;;5.50;99.90;;;;;;5073072;28;20178;-64
2023/01/26 11:08:42;;;;;;;30.10;16.48;;;5.60;99.90;;;;;;5072441;28;20169;-64
2023/01/26 11:11:26;;;;;;;25.25;15.70;;;5.60;99.90;;;;;;5072733;28;20174;-64
2023/01/26 11:14:16;;;;;;;27.13;16.95;;;5.60;99.90;;;;;;5072253;28;20195;-64
2023/01/26 11:17:18;;;;;;;30.00;16.20;;;5.60;99.90;;;;;;5072106;28;20494;-65
2023/01/26 11:20:12;;;;;;;27.85;16.27;;;5.60;99.90;;;;;;5072096;28;20166;-64
2023/01/26 11:23:07;;;;;;;29.90;16.45;;;5.60;99.90;;;;;;5072791;28;20591;-64
2023/01/26 11:25:49;;;;;;;29.65;17.65;;;5.60;99.90;;;;;;5071670;28;20215;-64
2023/01/26 11:28:43;;;;;;;27.98;17.50;;;5.70;99.90;;;;;;5072822;28;20637;-64
2023/01/26 11:31:41;;;;;;;27.70;16.40;;;5.70;99.90;;;;;;5071540;28;20177;-64
2023/01/26 11:34:19;;;;;;;26.95;15.23;;;5.70;99.90;;;;;;5061808;28;20640;-64
2023/01/26 11:36:59;;;;;;;24.52;14.50;;;5.70;99.90;;;;;;5072077;28;20174;-64
2023/01/26 11:39:54;;;;;;;23.92;16.13;;;5.70;99.90;;;;;;5072657;28;20248;-64
2023/01/26 11:42:47;;;;;;;23.80;14.95;;;5.70;99.90;;;;;;5000661;28;20227;-64
2023/01/26 11:45:17;;;;;;;30.13;17.00;;;5.70;99.90;;;;;;5072502;28;20649;-64
2023/01/26 11:48:15;;;;;;;25.00;15.52;;;5.70;99.90;;;;;;5071727;28;20226;-68
2023/01/26 11:50:55;;;;;;;29.85;15.65;;;5.70;99.90;;;;;;5054517;28;20217;-64
2023/01/26 11:53:27;;;;;;;30.30;17.52;;;5.70;99.90;;;;;;5071424;28;20176;-64
2023/01/26 11:56:03;;;;;;;26.48;17.20;;;5.70;99.90;;;;;;5069048;28;20181;-64
2023/01/26 11:58:37;;;;;;;26.40;17.75;;;5.70;99.90;;;;;;5069601;28;20262;-64
2023/01/26 12:01:15;;;;;;;24.42;16.40;;;5.70;99.90;;;;;;5071702;28;20450;-64
2023/01/26 12:03:49;;;;;;;25.58;15.82;;;5.80;99.90;;;;;;5071226;28;20194;-64
2023/01/26 12:06:27;;;;;;;26.17;15.05;;;5.80;99.90;;;;;;5072296;28;20181;-64
2023/01/26 12:09:17;;;;;;;29.77;15.68;;;5.80;99.90;;;;;;5072078;28;20169;-64
2023/01/26 12:12:09;;;;;;;25.95;15.02;;;5.80;99.90;;;;;;5057968;28;20193;-64
2023/01/26 12:14:53;;;;;;;24.45;14.43;;;5.80;99.90;;;;;;5072590;28;20176;-64
2023/01/26 12:17:44;;;;;;;22.35;14.95;;;5.80;99.90;;;;;;5071862;28;20177;-64
2023/01/26 12:20:44;;;;;;;23.55;14.52;;;5.90;99.90;;;;;;5072339;28;20174;-64
2023/01/26 12:23:13;;;;;;;22.88;14.40;;;5.80;99.90;;;;;;5072546;28;20212;-64
2023/01/26 12:25:53;;;;;;;24.20;14.45;;;5.80;99.90;;;;;;5069205;28;20173;-64
2023/01/26 12:28:47;;;;;;;26.70;15.93;;;5.80;99.90;;;;;;5070570;28;20262;-64
2023/01/26 12:31:34;;;;;;;24.17;15.15;;;5.80;99.90;;;;;;5072575;28;20264;-64
2023/01/26 12:34:00;;;;;;;24.33;14.82;;;5.80;99.90;;;;;;5071394;28;20174;-64
2023/01/26 12:36:35;;;;;;;26.47;14.30;;;5.80;99.90;;;;;;5072057;28;20658;-62
2023/01/26 12:39:13;;;;;;;28.95;15.23;;;5.80;99.90;;;;;;5071194;28;20412;-64
2023/01/26 12:41:56;;;;;;;21.98;13.50;;;5.90;99.90;;;;;;5070443;28;20228;-63
2023/01/26 12:44:28;;;;;;;22.13;14.30;;;5.90;99.90;;;;;;5071936;28;20173;-63
2023/01/26 12:47:20;;;;;;;23.58;15.00;;;5.90;99.90;;;;;;5074839;28;20181;-63
2023/01/26 12:49:50;;;;;;;21.60;14.10;;;5.90;99.90;;;;;;5075264;28;20173;-67
2023/01/26 12:52:46;;;;;;;21.33;13.52;;;5.90;99.90;;;;;;5075395;28;20250;-64
2023/01/26 12:55:19;;;;;;;21.13;13.05;;;5.90;99.90;;;;;;5070383;28;20236;-63
2023/01/26 12:57:56;;;;;;;19.30;12.15;;;5.90;99.90;;;;;;5073403;28;20185;-63
2023/01/26 13:00:26;;;;;;;20.25;14.10;;;5.90;99.90;;;;;;5075282;28;20639;-63
2023/01/26 13:03:00;;;;;;;19.70;13.85;;;5.90;99.90;;;;;;5074993;28;20209;-64
2023/01/26 13:05:34;;;;;;;23.58;12.82;;;5.90;99.90;;;;;;5074136;28;20184;-63
2023/01/26 13:08:31;;;;;;;23.27;13.93;;;6.00;99.90;;;;;;5074760;28;20617;-64
2023/01/26 13:11:07;;;;;;;20.02;13.27;;;5.90;99.90;;;;;;5074473;28;20684;-63
2023/01/26 13:13:51;;;;;;;20.80;13.35;;;5.90;99.90;;;;;;5075404;28;20260;-64
2023/01/26 13:16:17;;;;;;;21.40;14.27;;;6.00;99.90;;;;;;5075198;28;20181;-63
2023/01/26 13:18:56;;;;;;;18.80;13.07;;;6.00;99.90;;;;;;5075206;28;20610;-63
2023/01/26 13:21:40;;;;;;;20.70;13.80;;;6.00;99.90;;;;;;5073950;28;20190;-64
2023/01/26 13:24:15;;;;;;;19.65;13.30;;;6.00;99.90;;;;;;5073208;28;20412;-64
2023/01/26 13:26:45;;;;;;;19.75;13.73;;;6.00;99.90;;;;;;5059347;28;20181;-65
2023/01/26 13:29:26;;;;;;;21.02;13.00;;;6.00;99.90;;;;;;5060561;28;20637;-64
2023/01/26 13:31:55;;;;;;;19.10;11.00;;;6.10;99.90;;;;;;5066737;28;20185;-65
2023/01/26 13:34:35;;;;;;;22.40;12.55;;;6.00;99.90;;;;;;5071297;28;20186;-64
2023/01/26 13:37:30;;;;;;;17.73;10.95;;;6.00;99.90;;;;;;5071695;28;20192;-64
2023/01/26 13:40:16;;;;;;;17.52;10.60;;;6.00;99.90;;;;;;5072537;28;20606;-64